Aeroporto :







RITROVATECI SU...

 
LOGIN :

Iscrizione | Disclaimer

   EN    FR    IT 

 









Sommario :    VFR   VFR Marginale   IFR   IFR Intensivo   IFR Molto Intensivo
Visibilità : 
Base nubi : 
>= 8 km
>= 3000ft
5 / 8 km
1000 / 3000 ft
1500m / 5 km
500 / 1000 ft
800 / 1500m
200 / 500 ft
< 800m
< 200 ft
Simboli :   Temporali  Nebbia  Neve Forte  Precipitazioni Forti  Vento > 20 kt






- Altitudine del aeroporto : 92 ft
- Codice IATA : YZX


CYZX - CFB Greenwood

ULTIMO METAR :
  • 160700Z 27023G32KT 15SM BKN040 M02/M05 A2967 RMK SC7 PRESRR SLP047

METARs OBSOLETI :
  • 160600Z 27029G42KT 15SM BKN040 M01/M07 A2960 RMK SC7 PRESRR SLP023
  • 160500Z 27029G39KT 15SM BKN040 01/M06 A2953 RMK SC6 SLP002

TAF TAF CYZX
Valido dal 16 a 06 ore il 17 a 06 ore UTC


160530Z 1606/1706 27025G35KT P6SM BKN040
TEMPO 1606/1612 27030G40KT 6SM -SHSN BKN025
BECMG 1612/1614 FEW040
FM170000 27020G30KT P6SM SKC
BECMG 1704/1706 28015G25KT SCT240 RMK NXT FCST BY 161200Z



MetMap, La meteo Aeronautica in un colpo d'occhio ! - Copyright ORBIFLY Dicembre 2007 - Disclaimer

ORBIFLY MET'MAP TEAM :

Programmazione e sviluppo : Alexandra Zaïnal
Concezione : Baudouin d'Aumeries
Aiuto per la programmazione : Marc-Olivier Méhu
Supporto tecnico e logistico : Manuel Goepfert
Aiuto per la traduzione : Arnaldo La Scala

Contatto : metmap@orbifly.com




FONTI E CREDITI :

   NOAA